createdAt,value
2019-06-26T00:00:14.219Z,99286.47
2019-06-26T00:01:18.622Z,99289.76
2019-06-26T00:02:21.350Z,99283.77
2019-06-26T00:03:23.612Z,99286.90
2019-06-26T00:04:28.453Z,99283.58
2019-06-26T00:05:31.979Z,99277.75
2019-06-26T00:06:35.390Z,99278.59
2019-06-26T00:07:37.295Z,99277.75
2019-06-26T00:08:41.164Z,99274.66
2019-06-26T00:09:44.901Z,99276.51
2019-06-26T00:10:47.890Z,99275.70
2019-06-26T00:11:52.397Z,99273.81
2019-06-26T00:12:58.803Z,99275.73
2019-06-26T00:14:02.227Z,99267.26
2019-06-26T00:15:07.026Z,99269.75
2019-06-26T00:16:09.633Z,99265.41
2019-06-26T00:17:12.564Z,99269.52
2019-06-26T00:18:16.280Z,99260.23
2019-06-26T00:19:21.608Z,99267.03
2019-06-26T00:20:24.814Z,99266.23
2019-06-26T00:21:27.336Z,99262.50
2019-06-26T00:22:30.676Z,99267.66
2019-06-26T00:23:34.140Z,99270.76
2019-06-26T00:24:35.916Z,99267.42
2019-06-26T00:25:38.707Z,99266.64
2019-06-26T00:26:41.937Z,99273.64
2019-06-26T00:27:47.259Z,99265.38
2019-06-26T00:28:50.298Z,99266.63
2019-06-26T00:29:53.700Z,99262.27
2019-06-26T00:30:58.604Z,99259.97
2019-06-26T00:32:02.041Z,99266.33
2019-06-26T00:33:04.911Z,99264.52
2019-06-26T00:34:06.785Z,99267.03
2019-06-26T00:35:10.016Z,99268.19
2019-06-26T00:36:13.449Z,99265.91
2019-06-26T00:37:17.226Z,99268.05
2019-06-26T00:38:20.410Z,99265.37
2019-06-26T00:39:22.206Z,99267.61
2019-06-26T00:40:25.031Z,99263.29
2019-06-26T00:41:28.276Z,99270.34
2019-06-26T00:42:31.684Z,99259.97
2019-06-26T00:43:42.345Z,99261.25
2019-06-26T00:44:38.777Z,99269.72
2019-06-26T00:45:42.059Z,99263.11
2019-06-26T00:46:45.060Z,99261.03
2019-06-26T00:47:48.359Z,99264.98
2019-06-26T00:48:52.913Z,99263.34
2019-06-26T00:49:57.977Z,99262.72
2019-06-26T00:51:01.119Z,99267.06
2019-06-26T00:52:03.586Z,99264.98
2019-06-26T00:53:06.993Z,99255.46
2019-06-26T00:54:09.669Z,99260.84
2019-06-26T00:55:12.304Z,99255.42
2019-06-26T00:56:15.875Z,99250.25
2019-06-26T00:57:19.451Z,99256.45
2019-06-26T00:58:22.225Z,99256.65
2019-06-26T00:59:25.373Z,99257.25
2019-06-26T01:00:41.440Z,99259.95
2019-06-26T01:01:44.395Z,99251.67
2019-06-26T01:02:49.833Z,99263.30
2019-06-26T01:03:55.202Z,99254.17
2019-06-26T01:05:02.975Z,99257.56
2019-06-26T01:06:08.157Z,99255.67
2019-06-26T01:07:09.911Z,99255.27
2019-06-26T01:08:14.690Z,99259.36
2019-06-26T01:09:18.431Z,99255.66
2019-06-26T01:10:22.028Z,99254.59
2019-06-26T01:11:26.003Z,99257.52
2019-06-26T01:12:27.984Z,99250.52
2019-06-26T01:13:31.259Z,99245.97
2019-06-26T01:14:34.318Z,99245.98
2019-06-26T01:15:37.379Z,99243.46
2019-06-26T01:16:42.168Z,99246.55
2019-06-26T01:17:45.331Z,99243.62
2019-06-26T01:18:46.978Z,99240.53
2019-06-26T01:19:50.272Z,99235.53
2019-06-26T01:20:53.596Z,99237.19
2019-06-26T01:21:56.518Z,99238.72
2019-06-26T01:22:59.519Z,99235.21
2019-06-26T01:24:03.233Z,99238.07
2019-06-26T01:25:06.771Z,99238.81
2019-06-26T01:26:09.303Z,99237.83
2019-06-26T01:27:13.970Z,99243.05
2019-06-26T01:28:16.171Z,99233.97
2019-06-26T01:29:19.250Z,99234.57
2019-06-26T01:30:22.986Z,99232.30
2019-06-26T01:31:25.359Z,99234.17
2019-06-26T01:32:28.131Z,99231.50
2019-06-26T01:33:31.499Z,99240.97
2019-06-26T01:34:34.693Z,99238.28
2019-06-26T01:35:37.966Z,99234.79
2019-06-26T01:36:41.230Z,99239.33
2019-06-26T01:37:43.983Z,99236.44
2019-06-26T01:38:48.379Z,99231.86
2019-06-26T01:39:52.035Z,99233.45
2019-06-26T01:40:56.517Z,99231.80
2019-06-26T01:41:59.608Z,99233.66
2019-06-26T01:43:07.312Z,99231.16
2019-06-26T01:44:14.833Z,99233.80
2019-06-26T01:45:16.574Z,99233.79
2019-06-26T01:46:20.893Z,99236.46
2019-06-26T01:47:25.678Z,99230.03
2019-06-26T01:48:30.461Z,99229.59
2019-06-26T01:49:35.341Z,99219.84
2019-06-26T01:50:38.567Z,99228.70
2019-06-26T01:51:41.224Z,99232.07
2019-06-26T01:52:44.529Z,99228.12
2019-06-26T01:53:49.844Z,99228.73
2019-06-26T01:54:52.336Z,99230.80
2019-06-26T01:55:55.126Z,99218.31
2019-06-26T01:56:58.855Z,99225.02
2019-06-26T01:58:01.289Z,99225.62
2019-06-26T01:59:04.554Z,99231.39
2019-06-26T02:00:09.660Z,99222.98
2019-06-26T02:01:14.083Z,99232.72
2019-06-26T02:02:19.317Z,99230.67
2019-06-26T02:03:22.440Z,99222.16
2019-06-26T02:04:27.845Z,99229.84
2019-06-26T02:05:32.708Z,99227.77
2019-06-26T02:06:36.026Z,99222.79
2019-06-26T02:07:39.399Z,99225.28
2019-06-26T02:08:43.827Z,99232.53
2019-06-26T02:09:46.018Z,99226.73
2019-06-26T02:10:48.708Z,99223.20
2019-06-26T02:11:52.155Z,99219.92
2019-06-26T02:12:55.436Z,99226.92
2019-06-26T02:13:58.545Z,99223.63
2019-06-26T02:15:05.516Z,99225.23
2019-06-26T02:16:09.894Z,99216.56
2019-06-26T02:17:13.109Z,99220.91
2019-06-26T02:18:33.051Z,99218.69
2019-06-26T02:19:36.298Z,99218.23
2019-06-26T02:20:39.482Z,99220.93
2019-06-26T02:21:42.553Z,99211.66
2019-06-26T02:22:44.410Z,99210.41
2019-06-26T02:23:47.066Z,99212.05
2019-06-26T02:24:48.964Z,99209.36
2019-06-26T02:25:52.347Z,99212.27
2019-06-26T02:26:57.014Z,99212.20
2019-06-26T02:27:59.742Z,99214.87
2019-06-26T02:29:02.495Z,99210.30
2019-06-26T02:30:06.664Z,99207.03
2019-06-26T02:31:10.488Z,99210.92
2019-06-26T02:32:13.751Z,99216.16
2019-06-26T02:33:18.367Z,99208.87
2019-06-26T02:34:21.657Z,99219.64
2019-06-26T02:35:24.788Z,99211.97
2019-06-26T02:36:28.021Z,99207.63
2019-06-26T02:37:31.006Z,99207.27
2019-06-26T02:38:33.677Z,99206.25
2019-06-26T02:39:38.225Z,99205.45
2019-06-26T02:40:41.695Z,99211.20
2019-06-26T02:41:47.834Z,99209.56
2019-06-26T02:42:49.885Z,99207.42
2019-06-26T02:43:53.652Z,99206.17
2019-06-26T02:44:56.795Z,99212.92
2019-06-26T02:45:58.727Z,99214.95
2019-06-26T02:47:18.391Z,99205.76
2019-06-26T02:48:07.359Z,99213.48
2019-06-26T02:49:09.221Z,99209.14
2019-06-26T02:50:12.824Z,99210.80
2019-06-26T02:51:17.553Z,99207.17
2019-06-26T02:52:20.526Z,99196.17
2019-06-26T02:53:23.785Z,99195.36
2019-06-26T02:54:26.955Z,99201.63
2019-06-26T02:55:29.891Z,99208.13
2019-06-26T02:56:33.446Z,99207.64
2019-06-26T02:57:36.421Z,99194.88
2019-06-26T02:58:38.193Z,99205.15
2019-06-26T02:59:41.277Z,99195.78
2019-06-26T03:00:43.076Z,99203.23
2019-06-26T03:01:45.985Z,99203.50
2019-06-26T03:02:48.918Z,99191.22
2019-06-26T03:03:50.967Z,99195.39
2019-06-26T03:04:54.262Z,99194.75
2019-06-26T03:05:57.335Z,99199.73
2019-06-26T03:07:01.376Z,99190.42
2019-06-26T03:08:04.303Z,99202.28
2019-06-26T03:09:07.555Z,99196.82
2019-06-26T03:10:11.463Z,99195.83
2019-06-26T03:11:15.373Z,99209.58
2019-06-26T03:12:17.266Z,99205.02
2019-06-26T03:13:20.551Z,99210.80
2019-06-26T03:14:23.876Z,99201.29
2019-06-26T03:15:26.848Z,99207.83
2019-06-26T03:16:30.074Z,99208.48
2019-06-26T03:17:33.175Z,99205.58
2019-06-26T03:18:35.094Z,99218.29
2019-06-26T03:19:38.543Z,99208.66
2019-06-26T03:20:47.328Z,99207.46
2019-06-26T03:21:50.395Z,99215.73
2019-06-26T03:22:53.674Z,99215.20
2019-06-26T03:23:56.702Z,99204.11
2019-06-26T03:24:59.025Z,99210.59
2019-06-26T03:26:02.370Z,99208.25
2019-06-26T03:27:08.214Z,99204.28
2019-06-26T03:28:09.006Z,99204.03
2019-06-26T03:29:16.256Z,99198.94
2019-06-26T03:30:20.263Z,99205.53
2019-06-26T03:31:23.317Z,99203.42
2019-06-26T03:32:26.027Z,99208.02
2019-06-26T03:33:28.884Z,99201.95
2019-06-26T03:34:32.138Z,99211.65
2019-06-26T03:35:35.290Z,99207.27
2019-06-26T03:36:38.316Z,99204.91
2019-06-26T03:37:41.318Z,99211.81
2019-06-26T03:38:44.194Z,99212.00
2019-06-26T03:39:45.895Z,99217.25
2019-06-26T03:40:49.220Z,99217.91
2019-06-26T03:41:52.526Z,99216.36
2019-06-26T03:42:55.249Z,99216.69
2019-06-26T03:44:01.674Z,99206.77
2019-06-26T03:45:06.542Z,99205.19
2019-06-26T03:46:08.388Z,99211.17
2019-06-26T03:47:13.133Z,99203.84
2019-06-26T03:48:16.293Z,99208.06
2019-06-26T03:49:19.490Z,99208.13
2019-06-26T03:50:22.578Z,99209.20
2019-06-26T03:51:25.946Z,99205.29
2019-06-26T03:52:28.838Z,99203.22
2019-06-26T03:53:32.374Z,99208.61
2019-06-26T03:54:35.247Z,99204.52
2019-06-26T03:55:40.182Z,99207.86
2019-06-26T03:56:43.391Z,99210.81
2019-06-26T03:57:45.190Z,99214.93
2019-06-26T03:58:49.113Z,99208.75
2019-06-26T03:59:53.438Z,99207.71
2019-06-26T04:00:55.926Z,99211.44
2019-06-26T04:01:59.851Z,99208.75
2019-06-26T04:03:04.117Z,99211.44
2019-06-26T04:04:06.064Z,99205.01
2019-06-26T04:05:09.590Z,99215.14
2019-06-26T04:06:13.317Z,99214.13
2019-06-26T04:07:16.261Z,99213.28
2019-06-26T04:08:19.518Z,99215.14
2019-06-26T04:09:25.665Z,99213.08
2019-06-26T04:10:28.835Z,99217.63
2019-06-26T04:11:31.756Z,99216.18
2019-06-26T04:12:34.882Z,99216.59
2019-06-26T04:13:39.031Z,99211.86
2019-06-26T04:14:41.742Z,99211.66
2019-06-26T04:15:44.813Z,99223.22
2019-06-26T04:16:47.798Z,99214.95
2019-06-26T04:17:54.190Z,99219.49
2019-06-26T04:18:56.087Z,99214.68
2019-06-26T04:20:00.010Z,99223.39
2019-06-26T04:21:03.319Z,99218.66
2019-06-26T04:22:05.021Z,99217.41
2019-06-26T04:23:07.581Z,99217.41
2019-06-26T04:24:11.267Z,99216.57
2019-06-26T04:25:14.527Z,99222.34
2019-06-26T04:26:18.955Z,99216.80
2019-06-26T04:27:21.723Z,99223.02
2019-06-26T04:28:26.106Z,99226.11
2019-06-26T04:29:29.801Z,99219.48
2019-06-26T04:30:32.833Z,99218.66
2019-06-26T04:31:35.899Z,99214.11
2019-06-26T04:32:39.249Z,99220.73
2019-06-26T04:33:41.090Z,99219.91
2019-06-26T04:34:46.043Z,99219.48
2019-06-26T04:35:51.508Z,99220.31
2019-06-26T04:36:54.224Z,99219.08
2019-06-26T04:37:57.411Z,99219.49
2019-06-26T04:39:00.632Z,99216.18
2019-06-26T04:40:05.765Z,99216.16
2019-06-26T04:41:09.078Z,99222.30
2019-06-26T04:42:14.040Z,99220.02
2019-06-26T04:43:16.667Z,99222.69
2019-06-26T04:44:20.172Z,99223.00
2019-06-26T04:45:22.991Z,99223.97
2019-06-26T04:46:27.170Z,99219.71
2019-06-26T04:47:31.067Z,99217.91
2019-06-26T04:48:34.617Z,99216.25
2019-06-26T04:49:37.400Z,99219.35
2019-06-26T04:50:41.004Z,99216.49
2019-06-26T04:51:43.015Z,99223.53
2019-06-26T04:52:45.877Z,99221.45
2019-06-26T04:53:48.970Z,99222.51
2019-06-26T04:54:51.087Z,99225.85
2019-06-26T04:55:56.134Z,99227.09
2019-06-26T04:57:00.518Z,99224.02
2019-06-26T04:58:02.834Z,99215.09
2019-06-26T04:59:09.346Z,99223.52
2019-06-26T05:00:13.465Z,99222.45
2019-06-26T05:01:16.424Z,99219.41
2019-06-26T05:02:22.738Z,99216.47
2019-06-26T05:03:25.581Z,99215.91
2019-06-26T05:04:28.449Z,99211.15
2019-06-26T05:05:39.704Z,99221.54
2019-06-26T05:06:37.834Z,99218.64
2019-06-26T05:07:41.265Z,99226.10
2019-06-26T05:08:44.525Z,99221.56
2019-06-26T05:09:47.089Z,99217.20
2019-06-26T05:10:50.398Z,99216.80
2019-06-26T05:11:53.998Z,99221.98
2019-06-26T05:12:55.666Z,99223.63
2019-06-26T05:13:58.574Z,99215.56
2019-06-26T05:15:01.282Z,99215.77
2019-06-26T05:16:14.189Z,99214.07
2019-06-26T05:17:08.782Z,99217.31
2019-06-26T05:18:11.692Z,99224.35
2019-06-26T05:19:15.029Z,99217.24
2019-06-26T05:20:18.425Z,99218.10
2019-06-26T05:21:21.271Z,99215.17
2019-06-26T05:22:23.174Z,99217.66
2019-06-26T05:23:26.031Z,99225.27
2019-06-26T05:24:28.927Z,99225.06
2019-06-26T05:25:31.736Z,99219.15
2019-06-26T05:26:35.267Z,99227.45
2019-06-26T05:27:39.577Z,99221.00
2019-06-26T05:28:43.235Z,99223.63
2019-06-26T05:29:46.170Z,99223.34
2019-06-26T05:30:50.138Z,99222.92
2019-06-26T05:31:52.769Z,99218.80
2019-06-26T05:32:55.959Z,99228.31
2019-06-26T05:34:00.860Z,99220.83
2019-06-26T05:35:07.977Z,99225.16
2019-06-26T05:36:10.440Z,99227.05
2019-06-26T05:37:12.971Z,99225.64
2019-06-26T05:38:15.717Z,99225.02
2019-06-26T05:39:18.367Z,99225.98
2019-06-26T05:40:20.603Z,99228.23
2019-06-26T05:41:23.367Z,99229.88
2019-06-26T05:42:25.893Z,99226.97
2019-06-26T05:43:29.778Z,99231.49
2019-06-26T05:44:32.435Z,99229.39
2019-06-26T05:45:35.370Z,99234.78
2019-06-26T05:46:37.737Z,99235.73
2019-06-26T05:47:40.481Z,99233.49
2019-06-26T05:48:43.481Z,99232.27
2019-06-26T05:49:46.128Z,99236.22
2019-06-26T05:50:50.167Z,99230.58
2019-06-26T05:51:54.452Z,99235.70
2019-06-26T05:52:57.510Z,99240.84
2019-06-26T05:54:00.461Z,99231.91
2019-06-26T05:55:06.036Z,99233.84
2019-06-26T05:56:10.324Z,99227.89
2019-06-26T05:57:13.290Z,99233.59
2019-06-26T05:58:17.496Z,99233.00
2019-06-26T05:59:20.295Z,99234.75
2019-06-26T06:00:23.564Z,99230.02
2019-06-26T06:01:28.524Z,99229.36
2019-06-26T06:02:34.869Z,99232.66
2019-06-26T06:03:36.946Z,99228.91
2019-06-26T06:04:39.977Z,99234.27
2019-06-26T06:05:42.691Z,99236.74
2019-06-26T06:06:45.594Z,99235.03
2019-06-26T06:07:48.375Z,99236.05
2019-06-26T06:08:51.426Z,99229.98
2019-06-26T06:09:53.363Z,99224.17
2019-06-26T06:10:58.246Z,99233.65
2019-06-26T06:12:01.093Z,99232.84
2019-06-26T06:13:04.814Z,99228.30
2019-06-26T06:14:07.346Z,99226.61
2019-06-26T06:15:10.599Z,99227.12
2019-06-26T06:16:12.621Z,99237.65
2019-06-26T06:17:19.846Z,99237.09
2019-06-26T06:18:22.362Z,99237.41
2019-06-26T06:19:25.115Z,99238.28
2019-06-26T06:20:39.013Z,99233.70
2019-06-26T06:21:40.934Z,99237.17
2019-06-26T06:22:43.410Z,99236.48
2019-06-26T06:23:45.981Z,99232.17
2019-06-26T06:24:48.644Z,99231.97
2019-06-26T06:25:53.154Z,99230.62
2019-06-26T06:26:55.738Z,99237.44
2019-06-26T06:27:58.975Z,99228.62
2019-06-26T06:29:03.167Z,99234.06
2019-06-26T06:30:07.635Z,99235.11
2019-06-26T06:31:10.447Z,99228.73
2019-06-26T06:32:13.050Z,99232.17
2019-06-26T06:33:15.657Z,99230.78
2019-06-26T06:34:17.809Z,99225.60
2019-06-26T06:35:21.489Z,99228.06
2019-06-26T06:36:25.808Z,99232.23
2019-06-26T06:37:29.980Z,99224.95
2019-06-26T06:38:33.136Z,99226.84
2019-06-26T06:39:35.152Z,99226.85
2019-06-26T06:40:39.061Z,99230.16
2019-06-26T06:41:43.468Z,99223.12
2019-06-26T06:42:45.577Z,99226.83
2019-06-26T06:43:51.906Z,99231.00
2019-06-26T06:44:56.091Z,99222.49
2019-06-26T06:45:58.145Z,99225.39
2019-06-26T06:47:04.437Z,99226.20
2019-06-26T06:48:05.669Z,99224.77
2019-06-26T06:49:09.445Z,99225.17
2019-06-26T06:50:13.031Z,99221.88
2019-06-26T06:51:16.844Z,99218.76
2019-06-26T06:52:19.607Z,99221.64
2019-06-26T06:53:22.259Z,99222.45
2019-06-26T06:54:25.192Z,99216.02
2019-06-26T06:55:27.160Z,99218.49
2019-06-26T06:56:29.646Z,99224.66
2019-06-26T06:57:32.662Z,99222.25
2019-06-26T06:58:35.378Z,99222.08
2019-06-26T06:59:38.144Z,99212.35
2019-06-26T07:00:39.994Z,99227.27
2019-06-26T07:01:42.932Z,99221.06
2019-06-26T07:02:46.068Z,99209.87
2019-06-26T07:03:48.331Z,99219.38
2019-06-26T07:04:51.281Z,99216.91
2019-06-26T07:05:56.018Z,99223.13
2019-06-26T07:07:01.058Z,99222.48
2019-06-26T07:08:03.806Z,99213.80
2019-06-26T07:09:09.639Z,99214.59
2019-06-26T07:10:12.568Z,99214.57
2019-06-26T07:11:15.462Z,99214.38
2019-06-26T07:12:20.931Z,99210.25
2019-06-26T07:13:22.617Z,99207.77
2019-06-26T07:14:25.440Z,99205.27
2019-06-26T07:15:27.525Z,99201.69
2019-06-26T07:16:30.308Z,99202.90
2019-06-26T07:17:35.384Z,99206.38
2019-06-26T07:18:37.906Z,99212.75
2019-06-26T07:19:40.789Z,99204.23
2019-06-26T07:20:44.754Z,99213.14
2019-06-26T07:21:46.846Z,99202.19
2019-06-26T07:22:49.530Z,99214.64
2019-06-26T07:23:53.849Z,99208.44
2019-06-26T07:24:56.697Z,99210.45
2019-06-26T07:26:00.701Z,99200.06
2019-06-26T07:27:03.568Z,99205.59
2019-06-26T07:28:05.983Z,99204.55
2019-06-26T07:29:08.791Z,99206.41
2019-06-26T07:30:16.079Z,99208.29
2019-06-26T07:31:18.008Z,99201.89
2019-06-26T07:32:20.581Z,99198.15
2019-06-26T07:33:23.065Z,99194.75
2019-06-26T07:34:24.842Z,99200.70
2019-06-26T07:35:27.319Z,99196.11
2019-06-26T07:36:29.126Z,99199.40
2019-06-26T07:37:32.561Z,99201.22
2019-06-26T07:38:35.474Z,99202.27
2019-06-26T07:39:37.985Z,99194.02
2019-06-26T07:40:40.339Z,99195.27
2019-06-26T07:41:43.135Z,99196.74
2019-06-26T07:42:48.020Z,99206.27
2019-06-26T07:43:50.509Z,99203.53
2019-06-26T07:44:53.875Z,99202.65
2019-06-26T07:45:56.355Z,99195.57
2019-06-26T07:47:00.506Z,99196.38
2019-06-26T07:48:03.606Z,99193.66
2019-06-26T07:49:08.414Z,99203.11
2019-06-26T07:50:12.862Z,99199.14
2019-06-26T07:51:14.920Z,99190.98
2019-06-26T07:52:17.946Z,99195.11
2019-06-26T07:53:23.588Z,99197.62
2019-06-26T07:54:25.280Z,99187.44
2019-06-26T07:55:29.460Z,99191.94
2019-06-26T07:56:32.368Z,99194.97
2019-06-26T07:57:34.754Z,99199.47
2019-06-26T07:58:37.703Z,99186.61
2019-06-26T07:59:40.443Z,99186.09
2019-06-26T08:00:43.421Z,99189.53
2019-06-26T08:01:45.806Z,99184.67
2019-06-26T08:02:48.641Z,99188.42
2019-06-26T08:03:51.324Z,99179.61
2019-06-26T08:04:53.712Z,99177.07
2019-06-26T08:05:56.091Z,99190.09
2019-06-26T08:06:58.153Z,99185.51
2019-06-26T08:08:01.968Z,99180.77
2019-06-26T08:09:05.769Z,99184.30
2019-06-26T08:10:10.907Z,99182.66
2019-06-26T08:11:15.416Z,99183.46
2019-06-26T08:12:17.880Z,99183.77
2019-06-26T08:13:21.099Z,99182.00
2019-06-26T08:14:23.643Z,99181.70
2019-06-26T08:15:25.782Z,99184.14
2019-06-26T08:16:28.870Z,99177.05
2019-06-26T08:17:31.465Z,99187.95
2019-06-26T08:18:34.261Z,99183.17
2019-06-26T08:19:36.561Z,99178.89
2019-06-26T08:20:51.849Z,99182.39
2019-06-26T08:21:46.790Z,99180.38
2019-06-26T08:22:49.775Z,99171.91
2019-06-26T08:23:52.701Z,99174.23
2019-06-26T08:24:54.612Z,99174.45
2019-06-26T08:25:57.488Z,99180.40
2019-06-26T08:27:00.958Z,99185.59
2019-06-26T08:28:05.553Z,99175.44
2019-06-26T08:29:09.411Z,99178.13
2019-06-26T08:30:13.689Z,99172.31
2019-06-26T08:31:17.892Z,99167.39
2019-06-26T08:32:20.270Z,99167.67
2019-06-26T08:33:22.745Z,99166.52
2019-06-26T08:34:26.832Z,99167.48
2019-06-26T08:35:29.632Z,99165.16
2019-06-26T08:36:32.020Z,99176.73
2019-06-26T08:37:34.708Z,99175.83
2019-06-26T08:38:39.543Z,99168.48
2019-06-26T08:39:43.994Z,99166.38
2019-06-26T08:40:46.647Z,99163.64
2019-06-26T08:41:51.321Z,99172.11
2019-06-26T08:42:53.116Z,99163.42
2019-06-26T08:43:56.244Z,99162.80
2019-06-26T08:44:58.927Z,99158.92
2019-06-26T08:46:00.917Z,99164.90
2019-06-26T08:47:03.749Z,99164.47
2019-06-26T08:48:19.065Z,99158.38
2019-06-26T08:49:24.265Z,99163.99
2019-06-26T08:50:17.422Z,99162.57
2019-06-26T08:51:20.997Z,99155.64
2019-06-26T08:52:24.262Z,99163.73
2019-06-26T08:53:30.510Z,99156.48
2019-06-26T08:54:33.344Z,99164.43
2019-06-26T08:55:35.711Z,99160.16
2019-06-26T08:56:38.579Z,99161.27
2019-06-26T08:57:41.239Z,99159.49
2019-06-26T08:58:44.907Z,99166.84
2019-06-26T08:59:47.950Z,99159.27
2019-06-26T09:00:49.950Z,99148.96
2019-06-26T09:01:52.653Z,99156.98
2019-06-26T09:02:56.104Z,99151.17
2019-06-26T09:04:01.813Z,99155.52
2019-06-26T09:05:05.599Z,99154.14
2019-06-26T09:06:08.500Z,99152.84
2019-06-26T09:07:10.617Z,99146.65
2019-06-26T09:08:13.212Z,99148.32
2019-06-26T09:09:15.152Z,99152.17
2019-06-26T09:10:18.544Z,99155.81
2019-06-26T09:11:22.060Z,99158.38
2019-06-26T09:12:24.765Z,99155.72
2019-06-26T09:13:27.343Z,99152.01
2019-06-26T09:14:30.088Z,99147.63
2019-06-26T09:15:34.623Z,99150.98
2019-06-26T09:16:37.287Z,99147.83
2019-06-26T09:17:39.969Z,99148.18
2019-06-26T09:18:42.621Z,99145.41
2019-06-26T09:19:45.342Z,99148.56
2019-06-26T09:20:48.657Z,99146.83
2019-06-26T09:21:51.566Z,99141.68
2019-06-26T09:22:54.327Z,99142.13
2019-06-26T09:23:58.437Z,99153.33
2019-06-26T09:25:19.879Z,99151.55
2019-06-26T09:26:08.746Z,99145.37
2019-06-26T09:27:14.637Z,99143.81
2019-06-26T09:28:15.083Z,99149.89
2019-06-26T09:29:18.237Z,99139.69
2019-06-26T09:30:21.684Z,99143.81
2019-06-26T09:31:24.303Z,99147.27
2019-06-26T09:32:27.583Z,99143.90
2019-06-26T09:33:32.490Z,99149.66
2019-06-26T09:34:34.703Z,99133.19
2019-06-26T09:35:38.213Z,99135.44
2019-06-26T09:36:40.492Z,99139.37
2019-06-26T09:37:43.187Z,99139.97
2019-06-26T09:38:45.994Z,99134.80
2019-06-26T09:39:51.507Z,99133.04
2019-06-26T09:40:54.000Z,99126.20
2019-06-26T09:41:56.888Z,99131.13
2019-06-26T09:42:59.903Z,99124.86
2019-06-26T09:44:02.793Z,99136.59
2019-06-26T09:45:08.956Z,99132.29
2019-06-26T09:46:11.170Z,99134.85
2019-06-26T09:47:15.771Z,99134.29
2019-06-26T09:48:21.233Z,99134.42
2019-06-26T09:49:23.826Z,99119.01
2019-06-26T09:50:26.359Z,99127.29
2019-06-26T09:51:28.775Z,99126.70
2019-06-26T09:52:31.558Z,99120.83
2019-06-26T09:53:46.719Z,99113.07
2019-06-26T09:54:42.866Z,99116.30
2019-06-26T09:55:47.786Z,99113.47
2019-06-26T09:56:50.632Z,99114.27
2019-06-26T09:57:53.150Z,99117.45
2019-06-26T09:58:55.614Z,99109.41
2019-06-26T09:59:58.542Z,99114.88
2019-06-26T10:01:04.430Z,99101.83
2019-06-26T10:02:07.288Z,99113.69
2019-06-26T10:03:10.450Z,99109.76
2019-06-26T10:04:13.129Z,99114.09
2019-06-26T10:05:18.356Z,99106.03
2019-06-26T10:06:20.457Z,99112.14
2019-06-26T10:07:23.242Z,99104.17
2019-06-26T10:08:26.143Z,99104.83
2019-06-26T10:09:28.864Z,99102.58
2019-06-26T10:10:31.938Z,99099.43
2019-06-26T10:11:35.007Z,99100.98
2019-06-26T10:12:38.969Z,99097.09
2019-06-26T10:13:41.560Z,99092.43
2019-06-26T10:14:47.815Z,99094.25
2019-06-26T10:15:49.529Z,99095.88
2019-06-26T10:16:52.602Z,99088.63
2019-06-26T10:17:55.268Z,99095.13
2019-06-26T10:19:09.706Z,99087.08
2019-06-26T10:20:06.064Z,99089.54
2019-06-26T10:21:08.683Z,99074.73
2019-06-26T10:22:10.676Z,99075.63
2019-06-26T10:23:13.334Z,99074.80
2019-06-26T10:24:15.029Z,99080.43
2019-06-26T10:25:17.809Z,99077.16
2019-06-26T10:26:20.836Z,99072.20
2019-06-26T10:27:23.455Z,99076.06
2019-06-26T10:28:25.694Z,99078.66
2019-06-26T10:29:30.214Z,99085.66
2019-06-26T10:30:33.818Z,99080.13
2019-06-26T10:31:36.747Z,99075.83
2019-06-26T10:32:39.437Z,99070.87
2019-06-26T10:33:42.218Z,99082.03
2019-06-26T10:34:46.319Z,99078.67
2019-06-26T10:35:48.911Z,99074.19
2019-06-26T10:36:50.838Z,99067.17
2019-06-26T10:37:55.421Z,99072.20
2019-06-26T10:38:58.034Z,99067.62
2019-06-26T10:39:59.992Z,99069.75
2019-06-26T10:41:03.285Z,99065.77
2019-06-26T10:42:05.974Z,99067.93
2019-06-26T10:43:09.191Z,99056.47
2019-06-26T10:44:13.581Z,99060.81
2019-06-26T10:45:16.832Z,99059.75
2019-06-26T10:46:18.683Z,99046.66
2019-06-26T10:47:21.552Z,99048.04
2019-06-26T10:48:25.273Z,99043.00
2019-06-26T10:49:28.080Z,99059.40
2019-06-26T10:50:30.909Z,99052.23
2019-06-26T10:51:34.369Z,99046.38
2019-06-26T10:52:38.751Z,99034.16
2019-06-26T10:53:42.863Z,99041.01
2019-06-26T10:54:45.368Z,99037.94
2019-06-26T10:55:53.835Z,99034.63
2019-06-26T10:56:56.871Z,99039.33
2019-06-26T10:58:01.015Z,99043.90
2019-06-26T10:59:03.951Z,99040.94
2019-06-26T11:00:12.053Z,99041.39
2019-06-26T11:01:14.965Z,99037.62
2019-06-26T11:02:19.311Z,99024.87
2019-06-26T11:03:22.366Z,99034.27
2019-06-26T11:04:24.574Z,99028.52
2019-06-26T11:05:27.481Z,99032.53
2019-06-26T11:06:30.301Z,99024.06
2019-06-26T11:07:36.320Z,99030.16
2019-06-26T11:08:37.800Z,99033.80
2019-06-26T11:09:40.922Z,99032.61
2019-06-26T11:10:43.704Z,99031.30
2019-06-26T11:11:46.177Z,99023.22
2019-06-26T11:12:50.266Z,99025.19
2019-06-26T11:13:54.614Z,99032.23
2019-06-26T11:14:57.301Z,99020.98
2019-06-26T11:15:58.987Z,99030.59
2019-06-26T11:17:02.862Z,99022.03
2019-06-26T11:18:07.411Z,99023.80
2019-06-26T11:19:10.165Z,99028.95
2019-06-26T11:20:16.014Z,99019.88
2019-06-26T11:21:19.505Z,99018.50
2019-06-26T11:22:22.105Z,99014.87
2019-06-26T11:23:25.121Z,99016.98
2019-06-26T11:24:28.610Z,99006.06
2019-06-26T11:25:31.693Z,99010.49
2019-06-26T11:26:34.501Z,99011.23
2019-06-26T11:27:37.745Z,99007.34
2019-06-26T11:28:40.631Z,99005.70
2019-06-26T11:29:45.061Z,99004.52
2019-06-26T11:30:46.896Z,99005.95
2019-06-26T11:31:51.382Z,99003.86
2019-06-26T11:32:54.938Z,99002.56
2019-06-26T11:33:58.636Z,99003.27
2019-06-26T11:35:01.217Z,99002.20
2019-06-26T11:36:03.861Z,99004.09
2019-06-26T11:37:06.010Z,98999.26
2019-06-26T11:38:08.467Z,98991.16
2019-06-26T11:39:12.868Z,98992.44
2019-06-26T11:40:16.144Z,98998.91
2019-06-26T11:41:18.758Z,98988.20
2019-06-26T11:42:23.227Z,98994.11
2019-06-26T11:43:28.078Z,98986.12
2019-06-26T11:44:30.643Z,98989.28
2019-06-26T11:45:34.917Z,98988.81
2019-06-26T11:46:37.089Z,98975.91
2019-06-26T11:47:40.046Z,98994.11
2019-06-26T11:48:43.104Z,98983.25
2019-06-26T11:49:59.046Z,98985.02
2019-06-26T11:50:51.235Z,98981.13
2019-06-26T11:51:53.961Z,98980.50
2019-06-26T11:52:57.049Z,98979.04
2019-06-26T11:54:01.158Z,98981.41
2019-06-26T11:55:08.791Z,98975.31
2019-06-26T11:56:11.465Z,98973.75
2019-06-26T11:57:14.094Z,98975.31
2019-06-26T11:58:17.979Z,98967.77
2019-06-26T11:59:20.912Z,98970.48
2019-06-26T12:00:24.162Z,98972.37
2019-06-26T12:01:32.068Z,98974.35
2019-06-26T12:02:34.804Z,98967.56
2019-06-26T12:03:37.966Z,98970.94
2019-06-26T12:04:40.707Z,98969.18
2019-06-26T12:05:43.659Z,98968.77
2019-06-26T12:06:50.433Z,98967.14
2019-06-26T12:07:53.374Z,98970.13
2019-06-26T12:08:56.183Z,98955.78
2019-06-26T12:09:59.518Z,98968.27
2019-06-26T12:11:02.479Z,98966.13
2019-06-26T12:12:05.328Z,98961.19
2019-06-26T12:13:07.106Z,98958.14
2019-06-26T12:14:09.713Z,98963.69
2019-06-26T12:15:13.384Z,98961.42
2019-06-26T12:16:17.385Z,98954.16
2019-06-26T12:17:20.238Z,98951.45
2019-06-26T12:18:22.932Z,98953.83
2019-06-26T12:19:24.959Z,98963.90
2019-06-26T12:20:29.046Z,98949.33
2019-06-26T12:21:34.920Z,98948.52
2019-06-26T12:22:39.808Z,98944.40
2019-06-26T12:23:42.744Z,98949.23
2019-06-26T12:24:44.908Z,98942.64